Aeroporto :
LOGIN :

Iscrizione | Disclaimer

   EN    FR    IT 

 










Sommario :    VFR   VFR Marginale   IFR   IFR Intensivo   IFR Molto Intensivo
Visibilità : 
Base nubi : 
>= 8 km
>= 3000ft
5 / 8 km
1000 / 3000 ft
1500m / 5 km
500 / 1000 ft
800 / 1500m
200 / 500 ft
< 800m
< 200 ft
Simboli :   Temporali  Nebbia  Neve Forte  Precipitazioni Forti  Vento > 20 kt
SIGMETs :   Varie  Temporali  Ghiacco  Turbolenza  Onda orograficha  Ceneri Vulcaniche






- Altitudine del aeroporto : 479 ft
- Codice IATA : DOL


LFRG - Deauville

ULTIMO METAR :
  • 220700Z AUTO 15010KT CAVOK 06/04 Q0998 TEMPO 13015G25KT 4000 SHRA BKN007

METARs OBSOLETI :
  • 220630Z AUTO 16010KT 9999 FEW010 OVC140 06/04 Q0998 TEMPO 13015G25KT 4000 SHRA BKN007
  • 220600Z AUTO 16010KT CAVOK 06/04 Q0998 TEMPO 13015G25KT 4000 SHRA BKN007
  • 220530Z AUTO 17011KT CAVOK 05/04 Q0998 TEMPO 13015G25KT 4000 SHRA BKN007
  • 220500Z AUTO 17011KT CAVOK 06/04 Q0998
  • 220430Z AUTO 17011KT CAVOK 05/04 Q0998

TAF TAF LFRG
Valido dal 22 a 06 ore il 22 a 15 ore UTC


220500Z 2206/2215 16010KT 9999 SCT030
PROB30
TEMPO 2206/2211 4000 SHRA BKN007
TEMPO 2206/2215 13015G25KT
ATIS : +33 2 31 65 65 36



MetMap, La meteo Aeronautica in un colpo d'occhio ! - Copyright ORBIFLY Dicembre 2007 - Disclaimer

ORBIFLY MET'MAP TEAM :

Programmazione e sviluppo : Alexandra Zaïnal
Concezione e sviluppo : Baudouin d'Aumeries
Co-Programmazione e sviluppo : Marc-Olivier Méhu
Supporto tecnico e logistico : Manuel Goepfert
Aiuto per la traduzione : Arnaldo La Scala

Contatto : metmap@orbifly.com




FONTI E CREDITI :

   NOAA